Voorhees, NJ (08043)

12:03 AM EST on January 29, 2015 (GMT -0500)
APRSWXNET Voorhees NJ US | Change Station
CLOSE
Current Station
Personal Weather Station
Location: Voorhees, NJ
Elevation: 108 ft
Nearby Weather Stations

Elev 108 ft 39.85 °N, 74.99 °W | Updated 32 minutes ago

Clear
Clear
26 °F
Feels Like 26 °F
N
0
Wind Variable Wind from WNW
Gusts 3.0 mph

Today
High -- | Low -- °F
--% Chance of Precip.
Yesterday
High -- | Low -- °F
Precip. -- in
7:10 AM 5:15 PM
Waxing Gibbous, 71% visible
Pressure 30.30 in
Visibility 10.0 miles
Clouds Clear
Windchill 26 °F
Dew Point 7 °F
Humidity 43%
Rainfall 0.00 in
Snow Depth Not available.
UV 0 out of 12
Pollen .10 out of 12
Air Quality Not available.
Flu Activity Not available.
METAR KVAY 290454Z AUTO 00000KT 10SM CLR M04/M16 A3030 RMK AO2 SLP261 T10441161 400001083

More Conditions Fewer Conditions

Pressure 30.30 in
Visibility 10.0 miles
Clouds Clear
Windchill 26 °F
Dew Point 7 °F
Humidity 43%
Rainfall 0.00 in
Snow Depth Not available.
UV 0 out of 12
Pollen .10 out of 12
Air Quality Not available.
Flu Activity Not available.
METAR KVAY 290454Z AUTO 00000KT 10SM CLR M04/M16 A3030 RMK AO2 SLP261 T10441161 400001083

More Conditions Fewer Conditions

10-Day Weather Forecast

Almanac

Astronomy

Jan. 29, 2015 Rise Set
Actual Time
Civil Twilight
Nautical Twilight
Astronomical Twilight
Moon
Length of Visible Light
Length of Day
Tomorrow will be .
, % of the Moon is Illuminated

Today's Extremes

State Highs State Lows

Community

WunderPhotos

Upload Photos

1,791,354 photos uploaded!

WunderBlogs® & News

Nearby

Air Quality

  Air Quality AQ Index Pollutant
Not available.

Snow Depth

Station Depth Elevation

Earthquake Activity

City Distance Mag. Time & Date
Minimum magnitude displayed is 2.5.

Coastal Water Temperatures

Place Temperature

Nearby Weather Stations